sensor_id;sensor_type;location;lat;lon;timestamp;P1;durP1;ratioP1;P2;durP2;ratioP2
74510;SDS011;62991;50.040;18.400;2023-11-21T00:01:33;49.25;;;18.13;;
74510;SDS011;62991;50.040;18.400;2023-11-21T00:04:34;38.00;;;14.70;;
74510;SDS011;62991;50.040;18.400;2023-11-21T00:07:34;36.65;;;14.93;;
74510;SDS011;62991;50.040;18.400;2023-11-21T00:10:36;28.35;;;12.23;;
74510;SDS011;62991;50.040;18.400;2023-11-21T00:13:38;17.50;;;7.85;;
74510;SDS011;62991;50.040;18.400;2023-11-21T00:16:39;24.27;;;8.43;;
74510;SDS011;62991;50.040;18.400;2023-11-21T00:19:39;19.27;;;8.05;;
74510;SDS011;62991;50.040;18.400;2023-11-21T00:22:40;26.17;;;8.88;;
74510;SDS011;62991;50.040;18.400;2023-11-21T00:25:41;52.83;;;21.80;;
74510;SDS011;62991;50.040;18.400;2023-11-21T00:28:42;56.03;;;21.08;;
74510;SDS011;62991;50.040;18.400;2023-11-21T00:31:43;72.97;;;26.88;;
74510;SDS011;62991;50.040;18.400;2023-11-21T00:34:44;55.05;;;23.80;;
74510;SDS011;62991;50.040;18.400;2023-11-21T00:37:45;49.22;;;19.58;;
74510;SDS011;62991;50.040;18.400;2023-11-21T00:40:45;49.55;;;15.75;;
74510;SDS011;62991;50.040;18.400;2023-11-21T00:43:46;32.50;;;13.30;;
74510;SDS011;62991;50.040;18.400;2023-11-21T00:46:47;39.58;;;13.63;;
74510;SDS011;62991;50.040;18.400;2023-11-21T00:49:47;30.52;;;12.60;;
74510;SDS011;62991;50.040;18.400;2023-11-21T00:52:49;24.40;;;10.38;;
74510;SDS011;62991;50.040;18.400;2023-11-21T00:55:51;17.48;;;8.25;;
74510;SDS011;62991;50.040;18.400;2023-11-21T00:58:57;12.57;;;5.88;;
74510;SDS011;62991;50.040;18.400;2023-11-21T01:01:57;11.57;;;5.88;;
74510;SDS011;62991;50.040;18.400;2023-11-21T01:05:00;23.92;;;7.63;;
74510;SDS011;62991;50.040;18.400;2023-11-21T01:08:01;25.80;;;10.23;;
74510;SDS011;62991;50.040;18.400;2023-11-21T01:11:01;28.05;;;10.98;;
74510;SDS011;62991;50.040;18.400;2023-11-21T01:14:03;33.72;;;12.13;;
74510;SDS011;62991;50.040;18.400;2023-11-21T01:17:04;21.40;;;7.60;;
74510;SDS011;62991;50.040;18.400;2023-11-21T01:20:05;21.98;;;8.52;;
74510;SDS011;62991;50.040;18.400;2023-11-21T01:23:13;24.75;;;9.38;;
74510;SDS011;62991;50.040;18.400;2023-11-21T01:26:13;28.30;;;8.43;;
74510;SDS011;62991;50.040;18.400;2023-11-21T01:29:14;22.60;;;7.53;;
74510;SDS011;62991;50.040;18.400;2023-11-21T01:32:15;19.77;;;8.85;;
74510;SDS011;62991;50.040;18.400;2023-11-21T01:35:15;21.58;;;8.00;;
74510;SDS011;62991;50.040;18.400;2023-11-21T01:38:16;25.00;;;9.50;;
74510;SDS011;62991;50.040;18.400;2023-11-21T01:41:17;19.80;;;7.38;;
74510;SDS011;62991;50.040;18.400;2023-11-21T01:44:18;25.50;;;8.55;;
74510;SDS011;62991;50.040;18.400;2023-11-21T01:47:19;24.70;;;7.45;;
74510;SDS011;62991;50.040;18.400;2023-11-21T01:50:21;29.42;;;9.02;;
74510;SDS011;62991;50.040;18.400;2023-11-21T01:53:23;18.60;;;6.30;;
74510;SDS011;62991;50.040;18.400;2023-11-21T01:56:26;23.35;;;8.65;;
74510;SDS011;62991;50.040;18.400;2023-11-21T01:59:27;23.73;;;8.48;;
74510;SDS011;62991;50.040;18.400;2023-11-21T02:02:33;22.45;;;9.07;;
74510;SDS011;62991;50.040;18.400;2023-11-21T02:05:34;20.20;;;8.32;;
74510;SDS011;62991;50.040;18.400;2023-11-21T02:08:35;17.90;;;6.18;;
74510;SDS011;62991;50.040;18.400;2023-11-21T02:11:37;18.58;;;7.38;;
74510;SDS011;62991;50.040;18.400;2023-11-21T02:14:39;21.38;;;8.52;;
74510;SDS011;62991;50.040;18.400;2023-11-21T02:17:42;22.25;;;9.77;;
74510;SDS011;62991;50.040;18.400;2023-11-21T02:20:53;21.85;;;10.40;;
74510;SDS011;62991;50.040;18.400;2023-11-21T02:23:54;22.45;;;9.18;;
74510;SDS011;62991;50.040;18.400;2023-11-21T02:26:55;19.15;;;6.82;;
74510;SDS011;62991;50.040;18.400;2023-11-21T02:29:56;12.82;;;6.85;;
74510;SDS011;62991;50.040;18.400;2023-11-21T02:32:57;17.77;;;7.07;;
74510;SDS011;62991;50.040;18.400;2023-11-21T02:35:58;16.23;;;6.40;;
74510;SDS011;62991;50.040;18.400;2023-11-21T02:38:59;14.27;;;6.97;;
74510;SDS011;62991;50.040;18.400;2023-11-21T02:41:59;13.93;;;7.13;;
74510;SDS011;62991;50.040;18.400;2023-11-21T02:45:00;14.48;;;7.05;;
74510;SDS011;62991;50.040;18.400;2023-11-21T02:48:01;11.50;;;4.85;;
74510;SDS011;62991;50.040;18.400;2023-11-21T02:51:02;11.00;;;6.00;;
74510;SDS011;62991;50.040;18.400;2023-11-21T02:54:02;11.10;;;5.70;;
74510;SDS011;62991;50.040;18.400;2023-11-21T02:57:06;11.15;;;5.72;;
74510;SDS011;62991;50.040;18.400;2023-11-21T03:00:07;9.80;;;4.65;;
74510;SDS011;62991;50.040;18.400;2023-11-21T03:03:10;9.25;;;4.13;;
74510;SDS011;62991;50.040;18.400;2023-11-21T03:06:10;10.93;;;4.93;;
74510;SDS011;62991;50.040;18.400;2023-11-21T03:09:11;11.75;;;5.10;;
74510;SDS011;62991;50.040;18.400;2023-11-21T03:12:12;8.70;;;4.45;;
74510;SDS011;62991;50.040;18.400;2023-11-21T03:15:13;17.20;;;6.93;;
74510;SDS011;62991;50.040;18.400;2023-11-21T03:18:13;14.25;;;6.45;;
74510;SDS011;62991;50.040;18.400;2023-11-21T03:21:14;18.38;;;7.57;;
74510;SDS011;62991;50.040;18.400;2023-11-21T03:24:15;14.93;;;5.68;;
74510;SDS011;62991;50.040;18.400;2023-11-21T03:27:19;11.75;;;6.28;;
74510;SDS011;62991;50.040;18.400;2023-11-21T03:30:20;17.83;;;7.55;;
74510;SDS011;62991;50.040;18.400;2023-11-21T03:33:21;15.30;;;6.30;;
74510;SDS011;62991;50.040;18.400;2023-11-21T03:36:22;13.00;;;5.75;;
74510;SDS011;62991;50.040;18.400;2023-11-21T03:39:25;8.93;;;5.18;;
74510;SDS011;62991;50.040;18.400;2023-11-21T03:42:25;11.77;;;5.93;;
74510;SDS011;62991;50.040;18.400;2023-11-21T03:45:26;9.15;;;5.55;;
74510;SDS011;62991;50.040;18.400;2023-11-21T03:48:27;12.35;;;5.88;;
74510;SDS011;62991;50.040;18.400;2023-11-21T03:51:28;11.00;;;5.80;;
74510;SDS011;62991;50.040;18.400;2023-11-21T03:54:28;12.10;;;6.05;;
74510;SDS011;62991;50.040;18.400;2023-11-21T03:57:29;11.80;;;5.15;;
74510;SDS011;62991;50.040;18.400;2023-11-21T04:00:29;11.02;;;5.22;;
74510;SDS011;62991;50.040;18.400;2023-11-21T04:03:31;21.13;;;5.80;;
74510;SDS011;62991;50.040;18.400;2023-11-21T04:06:31;14.20;;;6.43;;
74510;SDS011;62991;50.040;18.400;2023-11-21T04:09:32;18.75;;;7.78;;
74510;SDS011;62991;50.040;18.400;2023-11-21T04:12:33;18.05;;;9.23;;
74510;SDS011;62991;50.040;18.400;2023-11-21T04:15:34;17.45;;;7.90;;
74510;SDS011;62991;50.040;18.400;2023-11-21T04:18:36;16.25;;;7.10;;
74510;SDS011;62991;50.040;18.400;2023-11-21T04:21:37;14.85;;;7.20;;
74510;SDS011;62991;50.040;18.400;2023-11-21T04:24:38;15.43;;;7.05;;
74510;SDS011;62991;50.040;18.400;2023-11-21T04:27:39;19.13;;;9.23;;
74510;SDS011;62991;50.040;18.400;2023-11-21T04:30:40;26.63;;;11.65;;
74510;SDS011;62991;50.040;18.400;2023-11-21T04:33:41;27.33;;;12.02;;
74510;SDS011;62991;50.040;18.400;2023-11-21T04:36:42;25.33;;;11.63;;
74510;SDS011;62991;50.040;18.400;2023-11-21T04:39:43;31.05;;;13.00;;
74510;SDS011;62991;50.040;18.400;2023-11-21T04:42:43;27.17;;;13.00;;
74510;SDS011;62991;50.040;18.400;2023-11-21T04:45:44;35.05;;;15.25;;
74510;SDS011;62991;50.040;18.400;2023-11-21T04:48:44;33.50;;;13.85;;
74510;SDS011;62991;50.040;18.400;2023-11-21T04:51:45;32.00;;;13.13;;
74510;SDS011;62991;50.040;18.400;2023-11-21T04:54:46;23.95;;;9.45;;
74510;SDS011;62991;50.040;18.400;2023-11-21T04:57:47;31.08;;;11.82;;
74510;SDS011;62991;50.040;18.400;2023-11-21T05:00:47;21.13;;;11.15;;
74510;SDS011;62991;50.040;18.400;2023-11-21T05:03:49;28.13;;;11.65;;
74510;SDS011;62991;50.040;18.400;2023-11-21T05:06:50;27.75;;;10.70;;
74510;SDS011;62991;50.040;18.400;2023-11-21T05:09:51;29.48;;;10.57;;
74510;SDS011;62991;50.040;18.400;2023-11-21T05:12:51;25.27;;;11.68;;
74510;SDS011;62991;50.040;18.400;2023-11-21T05:15:52;28.90;;;13.13;;
74510;SDS011;62991;50.040;18.400;2023-11-21T05:18:54;10.95;;;5.13;;
74510;SDS011;62991;50.040;18.400;2023-11-21T05:22:00;13.50;;;5.65;;
74510;SDS011;62991;50.040;18.400;2023-11-21T05:25:01;20.67;;;6.78;;
74510;SDS011;62991;50.040;18.400;2023-11-21T05:28:03;11.48;;;5.97;;
74510;SDS011;62991;50.040;18.400;2023-11-21T05:31:04;11.23;;;5.13;;
74510;SDS011;62991;50.040;18.400;2023-11-21T05:34:05;12.55;;;6.82;;
74510;SDS011;62991;50.040;18.400;2023-11-21T05:37:05;27.35;;;11.05;;
74510;SDS011;62991;50.040;18.400;2023-11-21T05:40:07;31.13;;;11.77;;
74510;SDS011;62991;50.040;18.400;2023-11-21T05:43:08;13.82;;;6.65;;
74510;SDS011;62991;50.040;18.400;2023-11-21T05:46:09;11.52;;;5.63;;
74510;SDS011;62991;50.040;18.400;2023-11-21T05:49:09;19.52;;;7.22;;
74510;SDS011;62991;50.040;18.400;2023-11-21T05:52:10;16.45;;;8.95;;
74510;SDS011;62991;50.040;18.400;2023-11-21T05:55:11;22.60;;;9.43;;
74510;SDS011;62991;50.040;18.400;2023-11-21T05:58:13;53.10;;;17.92;;
74510;SDS011;62991;50.040;18.400;2023-11-21T06:01:13;52.22;;;21.42;;
74510;SDS011;62991;50.040;18.400;2023-11-21T06:04:14;38.75;;;17.42;;
74510;SDS011;62991;50.040;18.400;2023-11-21T06:07:15;27.38;;;10.95;;
74510;SDS011;62991;50.040;18.400;2023-11-21T06:10:15;19.42;;;8.18;;
74510;SDS011;62991;50.040;18.400;2023-11-21T06:13:17;12.80;;;7.07;;
74510;SDS011;62991;50.040;18.400;2023-11-21T06:16:24;19.40;;;9.65;;
74510;SDS011;62991;50.040;18.400;2023-11-21T06:19:24;21.27;;;9.15;;
74510;SDS011;62991;50.040;18.400;2023-11-21T06:22:25;14.57;;;7.18;;
74510;SDS011;62991;50.040;18.400;2023-11-21T06:25:26;19.23;;;7.63;;
74510;SDS011;62991;50.040;18.400;2023-11-21T06:28:27;13.38;;;6.97;;
74510;SDS011;62991;50.040;18.400;2023-11-21T06:31:27;15.57;;;6.97;;
74510;SDS011;62991;50.040;18.400;2023-11-21T06:34:29;24.92;;;8.32;;
74510;SDS011;62991;50.040;18.400;2023-11-21T06:37:30;29.45;;;10.77;;
74510;SDS011;62991;50.040;18.400;2023-11-21T06:40:31;39.67;;;13.05;;
74510;SDS011;62991;50.040;18.400;2023-11-21T06:43:33;21.92;;;8.13;;
74510;SDS011;62991;50.040;18.400;2023-11-21T06:46:34;23.08;;;9.43;;
74510;SDS011;62991;50.040;18.400;2023-11-21T06:49:35;26.50;;;13.27;;
74510;SDS011;62991;50.040;18.400;2023-11-21T06:52:36;24.95;;;12.50;;
74510;SDS011;62991;50.040;18.400;2023-11-21T06:55:37;35.40;;;14.43;;
74510;SDS011;62991;50.040;18.400;2023-11-21T06:58:37;30.77;;;15.15;;
74510;SDS011;62991;50.040;18.400;2023-11-21T07:01:39;37.13;;;16.67;;
74510;SDS011;62991;50.040;18.400;2023-11-21T07:04:41;31.38;;;12.80;;
74510;SDS011;62991;50.040;18.400;2023-11-21T07:07:42;24.90;;;13.70;;
74510;SDS011;62991;50.040;18.400;2023-11-21T07:10:43;29.58;;;10.40;;
74510;SDS011;62991;50.040;18.400;2023-11-21T07:13:44;37.65;;;16.73;;
74510;SDS011;62991;50.040;18.400;2023-11-21T07:16:45;29.85;;;12.98;;
74510;SDS011;62991;50.040;18.400;2023-11-21T07:19:46;25.75;;;11.55;;
74510;SDS011;62991;50.040;18.400;2023-11-21T07:22:47;46.65;;;17.95;;
74510;SDS011;62991;50.040;18.400;2023-11-21T07:25:47;38.97;;;14.68;;
74510;SDS011;62991;50.040;18.400;2023-11-21T07:28:48;42.03;;;15.45;;
74510;SDS011;62991;50.040;18.400;2023-11-21T07:31:49;35.97;;;14.45;;
74510;SDS011;62991;50.040;18.400;2023-11-21T07:34:50;45.30;;;16.75;;
74510;SDS011;62991;50.040;18.400;2023-11-21T07:37:50;41.20;;;17.20;;
74510;SDS011;62991;50.040;18.400;2023-11-21T07:40:51;33.97;;;15.50;;
74510;SDS011;62991;50.040;18.400;2023-11-21T07:43:52;43.00;;;18.95;;
74510;SDS011;62991;50.040;18.400;2023-11-21T07:46:53;52.38;;;18.67;;
74510;SDS011;62991;50.040;18.400;2023-11-21T07:49:57;25.55;;;12.13;;
74510;SDS011;62991;50.040;18.400;2023-11-21T07:52:57;26.55;;;11.07;;
74510;SDS011;62991;50.040;18.400;2023-11-21T07:56:00;22.05;;;8.77;;
74510;SDS011;62991;50.040;18.400;2023-11-21T07:59:07;28.63;;;10.80;;
74510;SDS011;62991;50.040;18.400;2023-11-21T08:02:08;29.65;;;11.18;;
74510;SDS011;62991;50.040;18.400;2023-11-21T08:05:09;26.17;;;10.15;;
74510;SDS011;62991;50.040;18.400;2023-11-21T08:08:10;24.75;;;8.63;;
74510;SDS011;62991;50.040;18.400;2023-11-21T08:11:11;39.00;;;12.60;;
74510;SDS011;62991;50.040;18.400;2023-11-21T08:14:12;24.77;;;11.43;;
74510;SDS011;62991;50.040;18.400;2023-11-21T08:17:12;34.33;;;12.93;;
74510;SDS011;62991;50.040;18.400;2023-11-21T08:20:14;36.65;;;13.43;;
74510;SDS011;62991;50.040;18.400;2023-11-21T08:23:18;29.98;;;10.65;;
74510;SDS011;62991;50.040;18.400;2023-11-21T08:26:18;47.03;;;14.07;;
74510;SDS011;62991;50.040;18.400;2023-11-21T08:29:20;52.53;;;17.67;;
74510;SDS011;62991;50.040;18.400;2023-11-21T08:32:20;54.33;;;18.73;;
74510;SDS011;62991;50.040;18.400;2023-11-21T08:35:21;52.35;;;20.50;;
74510;SDS011;62991;50.040;18.400;2023-11-21T08:38:22;53.40;;;19.95;;
74510;SDS011;62991;50.040;18.400;2023-11-21T08:41:23;32.88;;;11.60;;
74510;SDS011;62991;50.040;18.400;2023-11-21T08:44:23;46.58;;;18.38;;
74510;SDS011;62991;50.040;18.400;2023-11-21T08:47:25;41.53;;;15.68;;
74510;SDS011;62991;50.040;18.400;2023-11-21T08:50:26;29.52;;;11.30;;
74510;SDS011;62991;50.040;18.400;2023-11-21T08:53:27;27.38;;;11.93;;
74510;SDS011;62991;50.040;18.400;2023-11-21T08:56:27;27.08;;;11.05;;
74510;SDS011;62991;50.040;18.400;2023-11-21T08:59:28;22.98;;;9.70;;
74510;SDS011;62991;50.040;18.400;2023-11-21T09:02:29;34.78;;;10.68;;
74510;SDS011;62991;50.040;18.400;2023-11-21T09:05:29;31.40;;;9.73;;
74510;SDS011;62991;50.040;18.400;2023-11-21T09:08:30;26.55;;;9.95;;
74510;SDS011;62991;50.040;18.400;2023-11-21T09:11:32;25.63;;;10.23;;
74510;SDS011;62991;50.040;18.400;2023-11-21T09:14:33;25.73;;;10.93;;
74510;SDS011;62991;50.040;18.400;2023-11-21T09:17:34;23.05;;;9.13;;
74510;SDS011;62991;50.040;18.400;2023-11-21T09:20:35;19.73;;;7.57;;
74510;SDS011;62991;50.040;18.400;2023-11-21T09:23:36;28.33;;;10.65;;
74510;SDS011;62991;50.040;18.400;2023-11-21T09:26:36;25.08;;;8.93;;
74510;SDS011;62991;50.040;18.400;2023-11-21T09:29:37;41.42;;;14.18;;
74510;SDS011;62991;50.040;18.400;2023-11-21T09:32:40;43.97;;;13.52;;
74510;SDS011;62991;50.040;18.400;2023-11-21T09:35:41;49.60;;;14.88;;
74510;SDS011;62991;50.040;18.400;2023-11-21T09:38:44;28.17;;;9.57;;
74510;SDS011;62991;50.040;18.400;2023-11-21T09:41:46;19.25;;;8.85;;
74510;SDS011;62991;50.040;18.400;2023-11-21T09:48:08;9.82;;;3.10;;
74510;SDS011;62991;50.040;18.400;2023-11-21T09:51:11;7.95;;;3.85;;
74510;SDS011;62991;50.040;18.400;2023-11-21T09:54:13;14.50;;;4.40;;
74510;SDS011;62991;50.040;18.400;2023-11-21T09:57:16;8.73;;;3.70;;
74510;SDS011;62991;50.040;18.400;2023-11-21T10:00:18;11.40;;;3.55;;
74510;SDS011;62991;50.040;18.400;2023-11-21T10:03:23;15.27;;;4.45;;
74510;SDS011;62991;50.040;18.400;2023-11-21T10:06:24;8.77;;;3.38;;
74510;SDS011;62991;50.040;18.400;2023-11-21T10:09:26;5.32;;;2.38;;
74510;SDS011;62991;50.040;18.400;2023-11-21T10:12:28;6.55;;;3.13;;
74510;SDS011;62991;50.040;18.400;2023-11-21T10:15:29;8.25;;;3.20;;
74510;SDS011;62991;50.040;18.400;2023-11-21T10:18:31;10.40;;;3.13;;
74510;SDS011;62991;50.040;18.400;2023-11-21T10:21:34;8.68;;;3.42;;
74510;SDS011;62991;50.040;18.400;2023-11-21T10:24:35;8.02;;;3.38;;
74510;SDS011;62991;50.040;18.400;2023-11-21T10:27:37;7.28;;;3.40;;
74510;SDS011;62991;50.040;18.400;2023-11-21T10:30:39;13.38;;;4.80;;
74510;SDS011;62991;50.040;18.400;2023-11-21T10:33:40;7.90;;;3.72;;
74510;SDS011;62991;50.040;18.400;2023-11-21T10:36:41;8.45;;;3.00;;
74510;SDS011;62991;50.040;18.400;2023-11-21T10:39:41;7.10;;;3.08;;
74510;SDS011;62991;50.040;18.400;2023-11-21T10:42:44;8.95;;;3.22;;
74510;SDS011;62991;50.040;18.400;2023-11-21T10:45:44;7.50;;;3.15;;
74510;SDS011;62991;50.040;18.400;2023-11-21T10:48:45;17.17;;;6.50;;
74510;SDS011;62991;50.040;18.400;2023-11-21T10:51:46;21.75;;;7.28;;
74510;SDS011;62991;50.040;18.400;2023-11-21T10:54:51;13.25;;;6.00;;
74510;SDS011;62991;50.040;18.400;2023-11-21T10:57:52;9.90;;;4.05;;
74510;SDS011;62991;50.040;18.400;2023-11-21T11:00:54;7.28;;;3.58;;
74510;SDS011;62991;50.040;18.400;2023-11-21T11:03:55;12.00;;;6.03;;
74510;SDS011;62991;50.040;18.400;2023-11-21T11:06:57;16.70;;;5.20;;
74510;SDS011;62991;50.040;18.400;2023-11-21T11:10:03;16.58;;;5.53;;
74510;SDS011;62991;50.040;18.400;2023-11-21T11:13:06;6.57;;;2.63;;
74510;SDS011;62991;50.040;18.400;2023-11-21T11:16:07;8.05;;;3.35;;
74510;SDS011;62991;50.040;18.400;2023-11-21T11:19:10;7.38;;;2.40;;
74510;SDS011;62991;50.040;18.400;2023-11-21T11:28:55;11.80;;;3.13;;
74510;SDS011;62991;50.040;18.400;2023-11-21T11:42:36;5.25;;;2.67;;
74510;SDS011;62991;50.040;18.400;2023-11-21T11:45:37;12.02;;;4.75;;
74510;SDS011;62991;50.040;18.400;2023-11-21T11:48:41;11.52;;;4.50;;
74510;SDS011;62991;50.040;18.400;2023-11-21T11:51:45;21.55;;;8.85;;
74510;SDS011;62991;50.040;18.400;2023-11-21T11:54:45;23.00;;;8.05;;
74510;SDS011;62991;50.040;18.400;2023-11-21T11:57:47;18.60;;;6.10;;
74510;SDS011;62991;50.040;18.400;2023-11-21T12:00:49;19.25;;;7.15;;
74510;SDS011;62991;50.040;18.400;2023-11-21T12:07:14;8.82;;;3.40;;
74510;SDS011;62991;50.040;18.400;2023-11-21T12:10:16;11.48;;;3.70;;
74510;SDS011;62991;50.040;18.400;2023-11-21T12:13:18;7.40;;;2.40;;
74510;SDS011;62991;50.040;18.400;2023-11-21T12:16:18;8.50;;;2.95;;
74510;SDS011;62991;50.040;18.400;2023-11-21T12:19:21;9.65;;;3.75;;
74510;SDS011;62991;50.040;18.400;2023-11-21T12:22:22;10.68;;;3.78;;
74510;SDS011;62991;50.040;18.400;2023-11-21T12:25:24;9.68;;;3.75;;
74510;SDS011;62991;50.040;18.400;2023-11-21T12:28:28;10.13;;;3.85;;
74510;SDS011;62991;50.040;18.400;2023-11-21T12:31:29;13.88;;;4.70;;
74510;SDS011;62991;50.040;18.400;2023-11-21T12:34:30;11.65;;;4.50;;
74510;SDS011;62991;50.040;18.400;2023-11-21T12:37:31;10.65;;;4.47;;
74510;SDS011;62991;50.040;18.400;2023-11-21T12:40:32;12.15;;;4.57;;
74510;SDS011;62991;50.040;18.400;2023-11-21T12:43:33;10.85;;;4.57;;
74510;SDS011;62991;50.040;18.400;2023-11-21T12:46:35;8.75;;;3.60;;
74510;SDS011;62991;50.040;18.400;2023-11-21T12:49:36;8.90;;;4.07;;
74510;SDS011;62991;50.040;18.400;2023-11-21T12:52:38;13.82;;;4.43;;
74510;SDS011;62991;50.040;18.400;2023-11-21T12:55:49;11.57;;;4.68;;
74510;SDS011;62991;50.040;18.400;2023-11-21T12:58:53;11.18;;;5.57;;
74510;SDS011;62991;50.040;18.400;2023-11-21T13:01:57;16.48;;;6.18;;
74510;SDS011;62991;50.040;18.400;2023-11-21T13:05:00;16.45;;;6.18;;
74510;SDS011;62991;50.040;18.400;2023-11-21T13:08:06;13.02;;;6.00;;
74510;SDS011;62991;50.040;18.400;2023-11-21T13:11:10;14.07;;;5.65;;
74510;SDS011;62991;50.040;18.400;2023-11-21T13:14:11;13.07;;;4.95;;
74510;SDS011;62991;50.040;18.400;2023-11-21T13:17:11;11.25;;;4.78;;
74510;SDS011;62991;50.040;18.400;2023-11-21T13:20:13;13.07;;;5.90;;
74510;SDS011;62991;50.040;18.400;2023-11-21T13:23:16;21.15;;;9.40;;
74510;SDS011;62991;50.040;18.400;2023-11-21T13:26:17;21.65;;;9.13;;
74510;SDS011;62991;50.040;18.400;2023-11-21T13:29:20;30.60;;;11.30;;
74510;SDS011;62991;50.040;18.400;2023-11-21T13:32:22;18.25;;;7.25;;
74510;SDS011;62991;50.040;18.400;2023-11-21T13:35:23;22.13;;;10.35;;
74510;SDS011;62991;50.040;18.400;2023-11-21T13:38:37;36.80;;;11.90;;
74510;SDS011;62991;50.040;18.400;2023-11-21T13:41:42;32.53;;;10.98;;
74510;SDS011;62991;50.040;18.400;2023-11-21T13:44:42;31.55;;;11.00;;
74510;SDS011;62991;50.040;18.400;2023-11-21T13:47:46;25.48;;;9.90;;
74510;SDS011;62991;50.040;18.400;2023-11-21T13:50:47;32.95;;;12.57;;
74510;SDS011;62991;50.040;18.400;2023-11-21T13:54:08;21.15;;;8.43;;
74510;SDS011;62991;50.040;18.400;2023-11-21T13:57:09;14.45;;;7.28;;
74510;SDS011;62991;50.040;18.400;2023-11-21T14:00:11;17.70;;;7.85;;
74510;SDS011;62991;50.040;18.400;2023-11-21T14:03:32;28.08;;;10.80;;
74510;SDS011;62991;50.040;18.400;2023-11-21T14:06:39;31.50;;;11.43;;
74510;SDS011;62991;50.040;18.400;2023-11-21T14:09:48;28.17;;;11.65;;
74510;SDS011;62991;50.040;18.400;2023-11-21T14:12:50;38.03;;;13.30;;
74510;SDS011;62991;50.040;18.400;2023-11-21T14:15:50;55.10;;;16.75;;
74510;SDS011;62991;50.040;18.400;2023-11-21T14:18:57;31.75;;;12.82;;
74510;SDS011;62991;50.040;18.400;2023-11-21T14:22:15;68.90;;;22.95;;
74510;SDS011;62991;50.040;18.400;2023-11-21T14:25:17;53.78;;;17.63;;
74510;SDS011;62991;50.040;18.400;2023-11-21T14:28:18;48.03;;;14.45;;
74510;SDS011;62991;50.040;18.400;2023-11-21T14:31:19;39.50;;;13.63;;
74510;SDS011;62991;50.040;18.400;2023-11-21T14:34:20;39.35;;;14.40;;
74510;SDS011;62991;50.040;18.400;2023-11-21T14:37:21;29.13;;;10.90;;
74510;SDS011;62991;50.040;18.400;2023-11-21T14:40:22;41.95;;;14.93;;
74510;SDS011;62991;50.040;18.400;2023-11-21T14:43:25;26.73;;;8.75;;
74510;SDS011;62991;50.040;18.400;2023-11-21T14:46:30;28.23;;;9.25;;
74510;SDS011;62991;50.040;18.400;2023-11-21T14:49:31;27.42;;;8.32;;
74510;SDS011;62991;50.040;18.400;2023-11-21T14:52:42;23.50;;;7.40;;
74510;SDS011;62991;50.040;18.400;2023-11-21T14:55:55;19.27;;;6.90;;
74510;SDS011;62991;50.040;18.400;2023-11-21T14:58:59;21.27;;;8.07;;
74510;SDS011;62991;50.040;18.400;2023-11-21T15:02:16;21.75;;;8.25;;
74510;SDS011;62991;50.040;18.400;2023-11-21T15:05:21;18.67;;;6.95;;
74510;SDS011;62991;50.040;18.400;2023-11-21T15:08:24;17.02;;;6.50;;
74510;SDS011;62991;50.040;18.400;2023-11-21T15:11:32;17.45;;;7.15;;
74510;SDS011;62991;50.040;18.400;2023-11-21T15:14:33;23.65;;;8.23;;
74510;SDS011;62991;50.040;18.400;2023-11-21T15:17:36;18.38;;;7.68;;
74510;SDS011;62991;50.040;18.400;2023-11-21T15:20:37;13.02;;;5.00;;
74510;SDS011;62991;50.040;18.400;2023-11-21T15:23:39;31.52;;;12.82;;
74510;SDS011;62991;50.040;18.400;2023-11-21T15:26:41;34.55;;;12.75;;
74510;SDS011;62991;50.040;18.400;2023-11-21T15:29:42;39.10;;;13.32;;
74510;SDS011;62991;50.040;18.400;2023-11-21T15:32:43;28.40;;;9.90;;
74510;SDS011;62991;50.040;18.400;2023-11-21T15:35:44;22.60;;;10.25;;
74510;SDS011;62991;50.040;18.400;2023-11-21T15:38:45;22.10;;;7.88;;
74510;SDS011;62991;50.040;18.400;2023-11-21T15:41:46;17.27;;;7.13;;
74510;SDS011;62991;50.040;18.400;2023-11-21T15:44:47;21.27;;;7.40;;
74510;SDS011;62991;50.040;18.400;2023-11-21T15:47:48;27.63;;;8.40;;
74510;SDS011;62991;50.040;18.400;2023-11-21T15:50:48;21.45;;;7.15;;
74510;SDS011;62991;50.040;18.400;2023-11-21T15:53:52;18.70;;;6.78;;
74510;SDS011;62991;50.040;18.400;2023-11-21T15:56:53;17.40;;;7.57;;
74510;SDS011;62991;50.040;18.400;2023-11-21T15:59:57;18.58;;;6.93;;
74510;SDS011;62991;50.040;18.400;2023-11-21T16:02:58;12.80;;;4.82;;
74510;SDS011;62991;50.040;18.400;2023-11-21T16:05:58;25.02;;;8.35;;
74510;SDS011;62991;50.040;18.400;2023-11-21T16:08:59;41.42;;;11.38;;
74510;SDS011;62991;50.040;18.400;2023-11-21T16:12:02;37.13;;;10.93;;
74510;SDS011;62991;50.040;18.400;2023-11-21T16:15:05;47.13;;;12.20;;
74510;SDS011;62991;50.040;18.400;2023-11-21T16:18:08;34.33;;;10.00;;
74510;SDS011;62991;50.040;18.400;2023-11-21T16:21:10;29.13;;;8.45;;
74510;SDS011;62991;50.040;18.400;2023-11-21T16:24:12;17.23;;;6.68;;
74510;SDS011;62991;50.040;18.400;2023-11-21T16:27:14;14.88;;;6.35;;
74510;SDS011;62991;50.040;18.400;2023-11-21T16:30:17;15.90;;;6.68;;
74510;SDS011;62991;50.040;18.400;2023-11-21T16:33:18;18.73;;;7.20;;
74510;SDS011;62991;50.040;18.400;2023-11-21T16:36:19;18.80;;;7.90;;
74510;SDS011;62991;50.040;18.400;2023-11-21T16:39:20;15.00;;;6.72;;
74510;SDS011;62991;50.040;18.400;2023-11-21T16:42:21;13.60;;;6.55;;
74510;SDS011;62991;50.040;18.400;2023-11-21T16:45:22;16.33;;;6.43;;
74510;SDS011;62991;50.040;18.400;2023-11-21T16:48:23;14.90;;;7.05;;
74510;SDS011;62991;50.040;18.400;2023-11-21T16:51:23;19.63;;;8.32;;
74510;SDS011;62991;50.040;18.400;2023-11-21T16:54:24;20.20;;;8.40;;
74510;SDS011;62991;50.040;18.400;2023-11-21T16:57:25;17.95;;;6.30;;
74510;SDS011;62991;50.040;18.400;2023-11-21T17:00:26;16.65;;;6.25;;
74510;SDS011;62991;50.040;18.400;2023-11-21T17:03:26;19.05;;;7.20;;
74510;SDS011;62991;50.040;18.400;2023-11-21T17:06:27;14.45;;;6.47;;
74510;SDS011;62991;50.040;18.400;2023-11-21T17:09:29;19.02;;;8.27;;
74510;SDS011;62991;50.040;18.400;2023-11-21T17:12:30;16.67;;;6.15;;
74510;SDS011;62991;50.040;18.400;2023-11-21T17:15:31;21.05;;;7.63;;
74510;SDS011;62991;50.040;18.400;2023-11-21T17:18:31;23.85;;;9.75;;
74510;SDS011;62991;50.040;18.400;2023-11-21T17:21:32;21.17;;;7.80;;
74510;SDS011;62991;50.040;18.400;2023-11-21T17:24:33;18.23;;;8.10;;
74510;SDS011;62991;50.040;18.400;2023-11-21T17:27:36;25.92;;;9.50;;
74510;SDS011;62991;50.040;18.400;2023-11-21T17:30:37;27.08;;;11.50;;
74510;SDS011;62991;50.040;18.400;2023-11-21T17:33:38;26.42;;;9.63;;
74510;SDS011;62991;50.040;18.400;2023-11-21T17:36:40;32.00;;;11.52;;
74510;SDS011;62991;50.040;18.400;2023-11-21T17:39:41;25.83;;;9.68;;
74510;SDS011;62991;50.040;18.400;2023-11-21T17:42:42;22.65;;;9.50;;
74510;SDS011;62991;50.040;18.400;2023-11-21T17:45:43;19.98;;;7.95;;
74510;SDS011;62991;50.040;18.400;2023-11-21T17:48:44;18.77;;;7.43;;
74510;SDS011;62991;50.040;18.400;2023-11-21T17:51:45;18.33;;;6.88;;
74510;SDS011;62991;50.040;18.400;2023-11-21T17:54:46;17.02;;;6.55;;
74510;SDS011;62991;50.040;18.400;2023-11-21T17:57:47;14.55;;;5.38;;
74510;SDS011;62991;50.040;18.400;2023-11-21T18:00:48;22.05;;;7.95;;
74510;SDS011;62991;50.040;18.400;2023-11-21T18:03:49;14.13;;;6.80;;